createdAt,value
2022-10-09T00:05:23.605Z,1028.08
2022-10-09T00:15:00.138Z,1028.12
2022-10-09T00:24:36.509Z,1028.08
2022-10-09T00:34:13.649Z,1028.13
2022-10-09T00:43:51.441Z,1028.16
2022-10-09T00:53:29.231Z,1028.08
2022-10-09T01:03:06.706Z,1028.13
2022-10-09T01:12:43.814Z,1028.11
2022-10-09T01:22:20.880Z,1028.09
2022-10-09T01:31:57.385Z,1028.05
2022-10-09T01:41:33.533Z,1028.21
2022-10-09T01:51:10.184Z,1028.19
2022-10-09T02:00:47.486Z,1028.25
2022-10-09T02:10:24.960Z,1028.18
2022-10-09T02:20:01.770Z,1028.15
2022-10-09T02:29:38.796Z,1028.2
2022-10-09T02:39:15.437Z,1028.35
2022-10-09T02:48:52.508Z,1028.38
2022-10-09T02:58:29.461Z,1028.36
2022-10-09T03:08:06.065Z,1028.39
2022-10-09T03:27:19.314Z,1028.43
2022-10-09T03:36:56.406Z,1028.45
2022-10-09T03:46:33.339Z,1028.47
2022-10-09T04:05:44.925Z,1028.44
2022-10-09T04:15:21.766Z,1028.49
2022-10-09T04:24:58.788Z,1028.66
2022-10-09T04:34:35.690Z,1028.66
2022-10-09T04:44:12.432Z,1028.63
2022-10-09T04:53:49.164Z,1028.59
2022-10-09T05:03:26.249Z,1028.67
2022-10-09T05:22:40.119Z,1028.73
2022-10-09T05:32:16.673Z,1028.76
2022-10-09T05:41:53.127Z,1028.77
2022-10-09T05:51:29.807Z,1028.78
2022-10-09T06:01:06.990Z,1028.85
2022-10-09T06:10:42.616Z,1028.78
2022-10-09T06:20:19.221Z,1028.79
2022-10-09T06:29:56.877Z,1028.84
2022-10-09T06:39:33.754Z,1028.92
2022-10-09T06:49:10.729Z,1029.02
2022-10-09T06:58:48.193Z,1029.06
2022-10-09T07:08:25.923Z,1029.16
2022-10-09T07:18:03.315Z,1029.22
2022-10-09T07:27:40.474Z,1029.24
2022-10-09T07:37:17.365Z,1029.26
2022-10-09T07:46:54.966Z,1029.26
2022-10-09T07:56:33.267Z,1029.32
2022-10-09T08:06:10.767Z,1029.3
2022-10-09T08:15:48.186Z,1029.25
2022-10-09T08:25:26.885Z,1029.3
2022-10-09T08:35:04.676Z,1029.1
2022-10-09T09:03:53.708Z,1029.03
2022-10-09T09:13:30.754Z,1028.88
2022-10-09T09:23:08.448Z,1028.83
2022-10-09T09:32:45.913Z,1028.72
2022-10-09T09:42:23.004Z,1028.51
2022-10-09T09:52:00.447Z,1028.36
2022-10-09T10:01:38.912Z,1028.18
2022-10-09T10:11:17.356Z,1027.88
2022-10-09T10:20:56.318Z,1027.62
2022-10-09T10:31:00.890Z,1027.26
2022-10-09T10:50:43.678Z,1026.74
2022-10-09T11:00:27.345Z,1026.57
2022-10-09T11:10:07.593Z,1026.24
2022-10-09T11:19:48.057Z,1026.06
2022-10-09T11:29:27.951Z,1025.93
2022-10-09T11:39:07.664Z,1025.61
2022-10-09T11:48:47.274Z,1025.42
2022-10-09T11:58:25.216Z,1025.3
2022-10-09T12:08:05.372Z,1025.03
2022-10-09T12:27:22.326Z,1024.88
2022-10-09T12:37:00.301Z,1024.67
2022-10-09T12:46:38.117Z,1024.59
2022-10-09T12:56:16.436Z,1024.43
2022-10-09T13:05:55.761Z,1024.31
2022-10-09T13:25:13.617Z,1023.93
2022-10-09T13:34:51.631Z,1023.93
2022-10-09T13:44:29.269Z,1023.63
2022-10-09T13:54:07.117Z,1023.55
2022-10-09T14:03:44.289Z,1023.43
2022-10-09T14:13:21.340Z,1023.4
2022-10-09T14:22:58.643Z,1023.18
2022-10-09T14:32:38.056Z,1023.14
2022-10-09T14:42:17.432Z,1023.23
2022-10-09T15:01:09.347Z,1023.16
2022-10-09T15:10:44.538Z,1023.11
2022-10-09T15:20:11.476Z,1023.06
2022-10-09T15:39:10.224Z,1023
2022-10-09T15:48:44.675Z,1022.94
2022-10-09T15:58:18.719Z,1022.88
2022-10-09T16:07:55.893Z,1022.91
2022-10-09T16:27:06.204Z,1022.9
2022-10-09T16:36:42.178Z,1022.88
2022-10-09T16:46:18.472Z,1022.93
2022-10-09T16:55:54.472Z,1023.04
2022-10-09T17:05:30.838Z,1023.06
2022-10-09T17:15:06.715Z,1023.07
2022-10-09T17:24:42.797Z,1023.12
2022-10-09T17:34:18.745Z,1023.14
2022-10-09T17:43:55.546Z,1023.12
2022-10-09T17:53:31.377Z,1023.16
2022-10-09T18:12:43.898Z,1023.11
2022-10-09T18:22:20.290Z,1023.07
2022-10-09T18:31:56.942Z,1023.08
2022-10-09T18:41:33.588Z,1023.02
2022-10-09T18:51:09.794Z,1023.02
2022-10-09T19:00:46.254Z,1023.02
2022-10-09T19:10:22.613Z,1022.99
2022-10-09T19:19:59.322Z,1022.8
2022-10-09T19:29:34.784Z,1022.76
2022-10-09T19:39:11.872Z,1022.7
2022-10-09T19:48:48.382Z,1022.58
2022-10-09T19:58:25.316Z,1022.53
2022-10-09T20:08:01.661Z,1022.61
2022-10-09T20:17:38.228Z,1022.58
2022-10-09T20:27:15.252Z,1022.64
2022-10-09T20:36:52.158Z,1022.57
2022-10-09T20:46:29.030Z,1022.52
2022-10-09T20:56:06.070Z,1022.48
2022-10-09T21:05:42.895Z,1022.49
2022-10-09T21:15:19.605Z,1022.47
2022-10-09T21:44:08.783Z,1022.31
2022-10-09T21:53:45.328Z,1022.26
2022-10-09T22:03:21.980Z,1022.24
2022-10-09T22:12:58.173Z,1022.12
2022-10-09T22:22:35.109Z,1022.04
2022-10-09T22:32:11.902Z,1021.94
2022-10-09T22:41:48.358Z,1021.82
2022-10-09T22:51:25.474Z,1021.74
2022-10-09T23:01:01.902Z,1021.72
2022-10-09T23:10:38.712Z,1021.67
2022-10-09T23:20:15.366Z,1021.62
2022-10-09T23:29:52.034Z,1021.55
2022-10-09T23:39:28.899Z,1021.61
2022-10-09T23:49:07.237Z,1021.58
2022-10-09T23:58:42.700Z,1021.46
